Time;durP1;ratioP1;P1;durP2;ratioP2;P2;SDS_P1;SDS_P2;PMS_P1;PMS_P2;Temp;Humidity;BMP_temperature;BMP_pressure;BME280_temperature;BME280_humidity;BME280_pressure;Samples;Min_cycle;Max_cycle;Signal;HPM_P1;HPM_P2
2022/03/16 00:01:07;;;;;;;;;;;;;;;22.37;38.81;102244.84;5046674;28;19954;-89
2022/03/16 00:03:35;;;;;;;;;;;;;;;22.37;38.91;102249.53;5033504;28;19917;-86
2022/03/16 00:06:00;;;;;;;;;;;;;;;22.36;38.88;102245.97;5031430;28;19945;-90
2022/03/16 00:08:28;;;;;;;;;;;;;;;22.36;38.97;102243.22;5034500;28;19936;-90
2022/03/16 00:10:54;;;;;;;;;;;;;;;22.35;38.87;102249.84;5045442;28;19947;-90
2022/03/16 00:13:24;;;;;;;;;;;;;;;22.36;38.80;102247.91;5056066;28;19932;-91
2022/03/16 00:15:52;;;;;;;;;;;;;;;22.34;38.96;102242.66;5046878;28;19925;-92
2022/03/16 00:18:20;;;;;;;;;;;;;;;22.34;39.17;102244.59;5073738;28;19933;-92
2022/03/16 00:20:52;;;;;;;;;;;;;;;22.33;38.83;102243.78;5019470;28;19921;-91
2022/03/16 00:23:19;;;;;;;;;;;;;;;22.32;38.89;102242.13;5014502;28;20051;-92
2022/03/16 00:25:45;;;;;;;;;;;;;;;22.32;39.13;102246.81;5032650;28;19998;-92
2022/03/16 00:28:12;;;;;;;;;;;;;;;22.31;38.75;102246.00;5049201;28;19939;-92
2022/03/16 00:30:41;;;;;;;;;;;;;;;22.30;38.70;102251.78;5030242;28;19935;-92
2022/03/16 00:33:07;;;;;;;;;;;;;;;22.29;38.83;102236.38;5047375;28;20373;-92
2022/03/16 00:35:42;;;;;;;;;;;;;;;22.28;38.86;102238.31;5016701;28;20044;-92
2022/03/16 00:38:16;;;;;;;;;;;;;;;22.28;38.85;102243.00;5029421;28;20052;-91
2022/03/16 00:40:41;;;;;;;;;;;;;;;22.28;38.64;102237.50;5014297;28;19988;-90
2022/03/16 00:43:16;;;;;;;;;;;;;;;22.26;38.86;102235.03;5045631;28;19995;-91
2022/03/16 00:45:43;;;;;;;;;;;;;;;22.25;38.83;102238.88;5016817;28;19928;-93
2022/03/16 00:48:09;;;;;;;;;;;;;;;22.25;38.75;102241.63;5015076;28;19925;-93
2022/03/16 00:50:34;;;;;;;;;;;;;;;22.25;38.72;102241.63;5028720;28;19936;-93
2022/03/16 00:53:00;;;;;;;;;;;;;;;22.23;38.78;102247.44;5014870;28;19955;-90
2022/03/16 00:55:29;;;;;;;;;;;;;;;22.23;38.69;102249.38;5032583;28;19986;-91
2022/03/16 00:57:54;;;;;;;;;;;;;;;22.22;38.73;102244.94;5015131;28;19932;-92
2022/03/16 01:00:19;;;;;;;;;;;;;;;22.20;38.57;102239.75;5045576;28;20007;-91
2022/03/16 01:02:55;;;;;;;;;;;;;;;22.21;38.92;102246.06;5013895;28;19948;-90
2022/03/16 01:05:25;;;;;;;;;;;;;;;22.19;38.83;102245.50;4999278;28;19929;-92
2022/03/16 01:07:53;;;;;;;;;;;;;;;22.19;38.48;102240.00;5032415;28;19917;-92
2022/03/16 01:10:26;;;;;;;;;;;;;;;22.18;38.75;102238.34;5050320;28;19939;-91
2022/03/16 01:12:58;;;;;;;;;;;;;;;22.18;38.54;102239.16;5029455;28;20391;-92
2022/03/16 01:15:26;;;;;;;;;;;;;;;22.16;38.81;102238.63;5014101;28;20013;-91
2022/03/16 01:17:56;;;;;;;;;;;;;;;22.14;38.64;102229.81;5014367;28;19991;-91
2022/03/16 01:20:22;;;;;;;;;;;;;;;22.13;38.40;102228.19;4998402;28;19925;-92
2022/03/16 01:22:49;;;;;;;;;;;;;;;22.14;38.44;102226.25;5014379;28;19958;-92
2022/03/16 01:25:15;;;;;;;;;;;;;;;22.14;38.57;102229.00;5013747;28;19972;-91
2022/03/16 01:27:47;;;;;;;;;;;;;;;22.12;38.38;102225.72;5041069;28;19942;-92
2022/03/16 01:30:34;;;;;;;;;;;;;;;22.12;38.43;102222.97;5044518;28;19925;-91
2022/03/16 01:32:59;;;;;;;;;;;;;;;22.10;38.37;102225.16;5026031;28;19952;-90
2022/03/16 01:35:29;;;;;;;;;;;;;;;22.11;38.30;102218.56;5009276;28;19967;-91
2022/03/16 01:37:54;;;;;;;;;;;;;;;22.09;38.66;102194.09;5034530;28;19948;-91
2022/03/16 01:40:19;;;;;;;;;;;;;;;22.09;38.46;102202.34;5014203;28;19986;-91
2022/03/16 01:42:45;;;;;;;;;;;;;;;22.09;38.55;102196.03;4997012;28;19950;-92
2022/03/16 01:45:10;;;;;;;;;;;;;;;22.08;38.55;102186.13;5013158;28;20005;-92
2022/03/16 01:47:38;;;;;;;;;;;;;;;22.07;38.50;102185.28;5032820;28;19928;-90
2022/03/16 01:50:04;;;;;;;;;;;;;;;22.06;38.49;102188.34;5045686;28;19934;-91
2022/03/16 01:52:29;;;;;;;;;;;;;;;22.06;38.58;102188.34;5030454;28;19969;-90
2022/03/16 01:54:55;;;;;;;;;;;;;;;22.05;38.14;102190.28;5027579;28;19943;-91
2022/03/16 01:57:21;;;;;;;;;;;;;;;22.04;38.50;102183.13;5058382;28;19956;-89
2022/03/16 01:59:46;;;;;;;;;;;;;;;22.03;38.13;102178.72;5045719;28;19971;-89
2022/03/16 02:02:12;;;;;;;;;;;;;;;22.02;38.59;102177.91;5013523;28;20029;-90
2022/03/16 02:04:38;;;;;;;;;;;;;;;22.02;38.51;102180.66;5028274;28;19921;-91
2022/03/16 02:07:03;;;;;;;;;;;;;;;22.02;38.18;102182.56;5011538;28;20278;-92
2022/03/16 02:09:29;;;;;;;;;;;;;;;22.02;38.46;102190.81;5037957;28;19932;-91
2022/03/16 02:11:54;;;;;;;;;;;;;;;21.99;38.19;102197.72;5046327;28;19928;-91
2022/03/16 02:14:19;;;;;;;;;;;;;;;22.00;38.10;102188.38;5015181;28;19976;-90
2022/03/16 02:16:45;;;;;;;;;;;;;;;21.99;38.23;102183.16;5032171;28;19921;-92
2022/03/16 02:19:11;;;;;;;;;;;;;;;21.97;38.11;102188.97;5028924;28;20413;-91
2022/03/16 02:21:43;;;;;;;;;;;;;;;21.97;38.41;102180.69;5017217;28;19949;-92
2022/03/16 02:24:08;;;;;;;;;;;;;;;21.97;38.03;102179.84;5033213;28;19924;-92
2022/03/16 02:26:34;;;;;;;;;;;;;;;21.97;38.13;102182.59;5050380;28;19928;-91
2022/03/16 02:28:59;;;;;;;;;;;;;;;21.95;38.27;102187.59;5033779;28;20004;-92
2022/03/16 02:31:24;;;;;;;;;;;;;;;21.94;38.16;102192.25;5050767;28;19925;-91
2022/03/16 02:33:50;;;;;;;;;;;;;;;21.93;38.35;102179.63;5065367;28;19921;-92
2022/03/16 02:36:15;;;;;;;;;;;;;;;21.94;38.28;102183.19;5031890;28;19971;-91
2022/03/16 02:38:40;;;;;;;;;;;;;;;21.92;38.32;102180.69;5031444;28;20031;-92
2022/03/16 02:41:06;;;;;;;;;;;;;;;21.92;38.05;102175.19;5019824;28;20418;-91
2022/03/16 02:43:31;;;;;;;;;;;;;;;21.92;38.20;102166.13;5033536;28;19947;-93
2022/03/16 02:45:56;;;;;;;;;;;;;;;21.91;38.24;102162.56;5034315;28;19950;-89
2022/03/16 02:48:21;;;;;;;;;;;;;;;21.90;38.19;102163.69;5031232;28;19916;-91
2022/03/16 02:50:47;;;;;;;;;;;;;;;21.90;38.23;102158.19;5016541;28;19924;-91
2022/03/16 02:53:15;;;;;;;;;;;;;;;21.89;38.01;102156.53;5030998;28;19956;-91
2022/03/16 02:55:40;;;;;;;;;;;;;;;21.89;37.94;102150.19;5048611;28;19939;-91
2022/03/16 02:58:05;;;;;;;;;;;;;;;21.88;38.30;102154.88;5049498;28;20007;-90
2022/03/16 03:00:31;;;;;;;;;;;;;;;21.88;38.22;102156.81;5046651;28;19982;-92
2022/03/16 03:02:56;;;;;;;;;;;;;;;21.88;37.89;102156.81;5016024;28;19965;-91
2022/03/16 03:05:21;;;;;;;;;;;;;;;21.88;38.06;102154.06;5031962;28;19925;-91
2022/03/16 03:07:47;;;;;;;;;;;;;;;21.87;38.21;102152.41;5017493;28;19925;-91
2022/03/16 03:10:12;;;;;;;;;;;;;;;21.86;38.26;102145.28;5058427;28;19981;-90
2022/03/16 03:12:38;;;;;;;;;;;;;;;21.84;38.06;102151.06;5055710;28;20041;-91
2022/03/16 03:15:04;;;;;;;;;;;;;;;21.85;38.16;102149.13;5019632;28;19925;-90
2022/03/16 03:17:30;;;;;;;;;;;;;;;21.85;38.07;102151.88;5045747;28;21188;-91
2022/03/16 03:19:55;;;;;;;;;;;;;;;21.83;38.16;102158.50;5039940;28;19971;-92
2022/03/16 03:22:24;;;;;;;;;;;;;;;21.82;38.11;102153.25;5035353;28;19950;-90
2022/03/16 03:24:49;;;;;;;;;;;;;;;21.82;37.87;102150.50;5031444;28;19949;-91
2022/03/16 03:27:15;;;;;;;;;;;;;;;21.81;38.12;102154.38;5031427;28;19950;-91
2022/03/16 03:29:40;;;;;;;;;;;;;;;21.80;37.97;102147.25;5032680;28;19975;-92
2022/03/16 03:32:05;;;;;;;;;;;;;;;21.81;38.08;102148.88;5016246;28;20288;-88
2022/03/16 03:34:31;;;;;;;;;;;;;;;21.79;38.07;102151.91;5031604;28;20041;-91
2022/03/16 03:36:56;;;;;;;;;;;;;;;21.80;37.84;102147.25;5032525;28;19921;-92
2022/03/16 03:39:21;;;;;;;;;;;;;;;21.78;37.92;102147.50;5032877;28;19921;-92
2022/03/16 03:41:46;;;;;;;;;;;;;;;21.77;38.16;102143.13;5035476;28;19932;-92
2022/03/16 03:44:12;;;;;;;;;;;;;;;21.77;37.88;102150.53;5036180;28;20348;-90
2022/03/16 03:46:37;;;;;;;;;;;;;;;21.76;37.79;102146.16;5035563;28;19947;-92
2022/03/16 03:49:02;;;;;;;;;;;;;;;21.76;37.73;102148.91;5038379;28;19933;-92
2022/03/16 03:51:28;;;;;;;;;;;;;;;21.75;37.76;102150.84;5050323;28;20276;-92
2022/03/16 03:53:53;;;;;;;;;;;;;;;21.75;37.67;102144.53;5054783;28;20022;-92
2022/03/16 03:56:38;;;;;;;;;;;;;;;21.75;38.08;102150.84;5034269;28;19939;-92
2022/03/16 03:59:06;;;;;;;;;;;;;;;21.73;37.72;102144.81;5054954;28;20356;-92
2022/03/16 04:01:33;;;;;;;;;;;;;;;21.73;38.12;102150.28;5050982;28;20304;-92
2022/03/16 04:04:01;;;;;;;;;;;;;;;21.72;38.00;102140.41;5035827;28;19978;-92
2022/03/16 04:06:26;;;;;;;;;;;;;;;21.72;37.85;102142.31;5051632;28;19964;-92
2022/03/16 04:08:55;;;;;;;;;;;;;;;21.71;37.56;102148.94;5053193;28;20051;-92
2022/03/16 04:11:27;;;;;;;;;;;;;;;21.71;38.00;102144.25;5035178;28;20360;-90
2022/03/16 04:13:55;;;;;;;;;;;;;;;21.70;37.94;102148.13;5015184;28;19921;-91
2022/03/16 04:16:21;;;;;;;;;;;;;;;21.70;37.66;102144.56;5034181;28;19921;-92
2022/03/16 04:18:48;;;;;;;;;;;;;;;21.69;38.01;102151.97;5035311;28;19917;-91
2022/03/16 04:21:16;;;;;;;;;;;;;;;21.70;37.72;102158.31;5035437;28;19954;-92
2022/03/16 04:23:46;;;;;;;;;;;;;;;21.68;37.65;102150.31;5035854;28;19935;-91
2022/03/16 04:26:12;;;;;;;;;;;;;;;21.68;37.73;102144.00;5034961;28;20015;-90
2022/03/16 04:28:40;;;;;;;;;;;;;;;21.67;37.83;102147.84;5052158;28;20055;-91
2022/03/16 04:31:05;;;;;;;;;;;;;;;21.66;37.68;102144.28;5017324;28;20377;-92
2022/03/16 04:33:31;;;;;;;;;;;;;;;21.66;37.64;102146.22;5033465;28;19937;-86
2022/03/16 04:35:59;;;;;;;;;;;;;;;21.66;37.58;102140.72;5033652;28;20049;-87
2022/03/16 04:38:24;;;;;;;;;;;;;;;21.65;37.74;102147.34;5067300;28;19932;-88
2022/03/16 04:40:50;;;;;;;;;;;;;;;21.64;37.85;102151.16;5050460;28;20276;-85
2022/03/16 04:43:15;;;;;;;;;;;;;;;21.63;37.98;102144.03;5034454;28;19939;-88
2022/03/16 04:45:41;;;;;;;;;;;;;;;21.64;37.92;102153.91;5034621;28;19978;-88
2022/03/16 04:48:08;;;;;;;;;;;;;;;21.63;38.00;102153.09;5052662;28;19975;-88
2022/03/16 04:50:34;;;;;;;;;;;;;;;21.61;37.73;102145.13;5034260;28;19917;-90
2022/03/16 04:52:59;;;;;;;;;;;;;;;21.61;37.77;102142.38;5052193;28;19927;-88
2022/03/16 04:55:26;;;;;;;;;;;;;;;21.61;37.77;102152.56;5065236;28;19935;-88
2022/03/16 04:57:52;;;;;;;;;;;;;;;21.60;37.65;102151.75;5017560;28;19929;-88
2022/03/16 05:00:17;;;;;;;;;;;;;;;21.59;37.93;102146.50;5033511;28;20017;-89
2022/03/16 05:02:45;;;;;;;;;;;;;;;21.59;37.73;102147.34;5051696;28;19964;-89
2022/03/16 05:05:10;;;;;;;;;;;;;;;21.58;37.95;102153.13;5034102;28;20441;-88
2022/03/16 05:07:36;;;;;;;;;;;;;;;21.57;37.87;102152.31;5033124;28;19947;-89
2022/03/16 05:10:02;;;;;;;;;;;;;;;21.56;38.00;102147.91;5047422;28;20383;-88
2022/03/16 05:12:28;;;;;;;;;;;;;;;21.57;38.03;102155.06;5033321;28;19960;-89
2022/03/16 05:14:53;;;;;;;;;;;;;;;21.56;37.96;102134.16;5032799;28;19925;-88
2022/03/16 05:17:18;;;;;;;;;;;;;;;21.55;37.79;102131.72;5032397;28;19963;-88
2022/03/16 05:19:44;;;;;;;;;;;;;;;21.54;37.77;102135.53;5066826;28;19924;-89
2022/03/16 05:22:09;;;;;;;;;;;;;;;21.54;37.77;102136.38;5017499;28;19925;-89
2022/03/16 05:24:34;;;;;;;;;;;;;;;21.53;37.68;102137.47;5051779;28;19993;-89
2022/03/16 05:27:00;;;;;;;;;;;;;;;21.53;37.95;102131.16;5017318;28;19987;-89
2022/03/16 05:29:25;;;;;;;;;;;;;;;21.52;37.71;102132.25;5033151;28;19945;-89
2022/03/16 05:31:50;;;;;;;;;;;;;;;21.51;37.56;102136.94;5034271;28;19920;-88
2022/03/16 05:34:16;;;;;;;;;;;;;;;21.51;37.74;102139.69;5016451;28;20338;-88
2022/03/16 05:36:41;;;;;;;;;;;;;;;21.51;37.65;102141.63;5067048;28;19920;-89
2022/03/16 05:39:06;;;;;;;;;;;;;;;21.49;37.80;102136.38;5031349;28;20343;-88
2022/03/16 05:41:31;;;;;;;;;;;;;;;21.49;37.94;102150.13;5016106;28;20161;-88
2022/03/16 05:43:59;;;;;;;;;;;;;;;21.49;37.68;102150.13;5030881;28;19925;-88
2022/03/16 05:46:24;;;;;;;;;;;;;;;21.49;37.43;102152.88;5045235;28;19992;-89
2022/03/16 05:48:52;;;;;;;;;;;;;;;21.48;37.92;102154.00;5049776;28;20007;-88
2022/03/16 05:51:17;;;;;;;;;;;;;;;21.47;37.51;102152.38;5032812;28;20507;-89
2022/03/16 05:53:42;;;;;;;;;;;;;;;21.47;37.80;102157.03;5032851;28;20013;-88
2022/03/16 05:56:08;;;;;;;;;;;;;;;21.46;37.80;102156.19;5033680;28;19917;-88
2022/03/16 05:58:35;;;;;;;;;;;;;;;21.46;37.62;102160.88;5033413;28;20299;-89
2022/03/16 06:01:03;;;;;;;;;;;;;;;21.46;37.67;102158.13;5052674;28;19985;-88
2022/03/16 06:03:29;;;;;;;;;;;;;;;21.46;37.83;102163.63;5033604;28;19928;-88
2022/03/16 06:05:54;;;;;;;;;;;;;;;21.44;37.77;102163.09;5032989;28;20022;-89
2022/03/16 06:08:19;;;;;;;;;;;;;;;21.44;37.43;102163.91;5052265;28;19951;-89
2022/03/16 06:10:45;;;;;;;;;;;;;;;21.44;37.58;102154.84;5023730;28;19932;-89
2022/03/16 06:13:13;;;;;;;;;;;;;;;21.43;37.57;102164.22;5014944;28;19928;-88
2022/03/16 06:15:43;;;;;;;;;;;;;;;21.42;37.43;102162.53;5031182;28;20452;-88
2022/03/16 06:18:08;;;;;;;;;;;;;;;21.43;37.64;102164.22;5039501;28;19945;-89
2022/03/16 06:20:34;;;;;;;;;;;;;;;21.41;37.37;102167.22;5013926;28;19946;-89
2022/03/16 06:22:59;;;;;;;;;;;;;;;21.42;37.44;102168.03;5014457;28;20370;-89
2022/03/16 06:25:25;;;;;;;;;;;;;;;21.42;37.51;102165.28;5047023;28;20404;-89
2022/03/16 06:27:53;;;;;;;;;;;;;;;21.41;37.78;102163.66;5028852;28;20389;-89
2022/03/16 06:30:20;;;;;;;;;;;;;;;21.39;37.37;102162.03;5029085;28;19985;-88
2022/03/16 06:32:48;;;;;;;;;;;;;;;21.39;37.35;102158.44;5026249;28;20006;-88
2022/03/16 06:35:14;;;;;;;;;;;;;;;21.40;37.38;102157.34;5047600;28;19936;-87
2022/03/16 06:37:39;;;;;;;;;;;;;;;21.39;37.51;102150.19;5047334;28;19961;-87
2022/03/16 06:40:15;;;;;;;;;;;;;;;;;;;;;
2022/03/16 06:42:45;;;;;;;;;;;;;;;21.39;37.60;102141.94;5030164;28;19925;-89
2022/03/16 06:45:10;;;;;;;;;;;;;;;21.38;37.27;102129.28;4999267;28;20029;-85
2022/03/16 06:47:38;;;;;;;;;;;;;;;21.39;37.49;102130.94;5007905;28;20151;-86
2022/03/16 06:50:04;;;;;;;;;;;;;;;21.39;37.75;102128.19;5012401;28;19921;-86
2022/03/16 06:52:39;;;;;;;;;;;;;;;21.38;37.45;102121.03;5044557;28;20019;-86
2022/03/16 06:55:08;;;;;;;;;;;;;;;21.38;37.88;102126.53;5028622;28;19928;-89
2022/03/16 06:57:33;;;;;;;;;;;;;;;21.38;37.84;102115.53;5015121;28;19923;-83
2022/03/16 06:59:59;;;;;;;;;;;;;;;21.38;37.77;102124.63;5032359;28;19943;-85
2022/03/16 07:02:24;;;;;;;;;;;;;;;21.38;37.86;102127.38;5006691;28;20009;-85
2022/03/16 07:04:49;;;;;;;;;;;;;;;21.38;37.61;102127.38;5030351;28;19938;-86
2022/03/16 07:07:15;;;;;;;;;;;;;;;21.38;37.93;102126.53;5008625;28;20295;-87
2022/03/16 07:09:40;;;;;;;;;;;;;;;21.38;37.56;102121.88;4999642;28;19980;-85
2022/03/16 07:12:05;;;;;;;;;;;;;;;21.38;37.83;102121.03;5038802;28;19929;-87
2022/03/16 07:14:31;;;;;;;;;;;;;;;21.37;38.01;102124.91;5026202;28;19947;-86
2022/03/16 07:16:56;;;;;;;;;;;;;;;21.36;37.86;102118.56;5016373;28;20071;-90
2022/03/16 07:19:21;;;;;;;;;;;;;;;21.36;37.94;102112.25;5036188;28;19926;-86
2022/03/16 07:21:47;;;;;;;;;;;;;;;21.37;37.69;102105.66;4993572;28;20313;-85
2022/03/16 07:24:12;;;;;;;;;;;;;;;21.36;37.65;102107.56;5021570;28;19960;-89
2022/03/16 07:26:38;;;;;;;;;;;;;;;21.37;37.81;102097.41;5001548;28;20138;-88
2022/03/16 07:29:04;;;;;;;;;;;;;;;21.36;37.73;102090.25;5035619;28;19929;-86
2022/03/16 07:31:32;;;;;;;;;;;;;;;21.36;37.81;102091.06;5025677;28;20066;-88
2022/03/16 07:33:57;;;;;;;;;;;;;;;21.36;37.90;102091.06;5030003;28;19985;-87
2022/03/16 07:36:25;;;;;;;;;;;;;;;21.36;37.99;102088.31;5015849;28;20015;-89
2022/03/16 07:38:50;;;;;;;;;;;;;;;21.36;38.08;102091.06;5019614;28;20009;-89
2022/03/16 07:41:16;;;;;;;;;;;;;;;21.36;37.97;102087.50;5034510;28;20081;-86
2022/03/16 07:43:41;;;;;;;;;;;;;;;21.36;38.12;102093.81;5003623;28;19932;-83
2022/03/16 07:46:07;;;;;;;;;;;;;;;21.36;38.24;102098.50;5013815;28;19972;-91
2022/03/16 07:48:34;;;;;;;;;;;;;;;21.36;37.95;102087.50;5021510;28;19928;-82
2022/03/16 07:51:01;;;;;;;;;;;;;;;21.37;38.04;102103.72;5016028;28;19928;-83
2022/03/16 07:53:28;;;;;;;;;;;;;;;21.37;38.32;102100.97;5024519;28;19917;-83
2022/03/16 07:56:01;;;;;;;;;;;;;;;21.38;38.25;102093.53;5016130;28;19947;-84
2022/03/16 07:58:27;;;;;;;;;;;;;;;21.38;38.22;102110.88;5029587;28;19962;-82
2022/03/16 08:01:05;;;;;;;;;;;;;;;;;;;;;
2022/03/16 08:03:36;;;;;;;;;;;;;;;21.39;38.38;102115.28;5037649;28;19965;-89
2022/03/16 08:06:01;;;;;;;;;;;;;;;21.41;38.60;102117.75;5026011;28;19921;-84
2022/03/16 08:08:39;;;;;;;;;;;;;;;;;;;;;
2022/03/16 08:11:25;;;;;;;;;;;;;;;21.41;38.61;102117.75;5048037;28;20307;-87
2022/03/16 08:14:12;;;;;;;;;;;;;;;21.42;38.40;102116.66;5029180;28;19917;-87
2022/03/16 08:16:59;;;;;;;;;;;;;;;21.43;38.35;102128.47;5023184;28;19964;-86
2022/03/16 08:19:36;;;;;;;;;;;;;;;21.43;38.58;102134.78;5025858;28;19924;-87
2022/03/16 08:22:23;;;;;;;;;;;;;;;21.44;38.61;102125.41;5030138;28;19960;-87
2022/03/16 08:25:05;;;;;;;;;;;;;;;;;;;;;
2022/03/16 08:27:45;;;;;;;;;;;;;;;21.45;38.66;102121.59;5046021;28;20371;-88
2022/03/16 08:30:23;;;;;;;;;;;;;;;21.45;38.68;102124.34;5030515;28;19934;-89
2022/03/16 08:33:01;;;;;;;;;;;;;;;21.46;38.44;102125.16;5010723;28;19945;-87
2022/03/16 08:35:34;;;;;;;;;;;;;;;21.47;38.58;102129.53;5045279;28;19964;-89
2022/03/16 08:38:36;;;;;;;;;;;;;;;;;;;;;
2022/03/16 08:41:32;;;;;;;;;;;;;;;;;;;;;
2022/03/16 08:44:08;;;;;;;;;;;;;;;21.48;38.71;102132.00;5033738;28;19929;-90
2022/03/16 08:46:40;;;;;;;;;;;;;;;21.48;38.64;102129.25;5030459;28;20046;-84
2022/03/16 08:52:01;;;;;;;;;;;;;;;21.51;38.64;102125.13;5048192;28;20023;-89
2022/03/16 08:54:29;;;;;;;;;;;;;;;21.50;38.65;102129.81;5047509;28;19947;-89
2022/03/16 08:57:05;;;;;;;;;;;;;;;21.51;38.79;102139.69;5028348;28;19924;-89
2022/03/16 09:00:01;;;;;;;;;;;;;;;;;;;;;
2022/03/16 09:02:21;;;;;;;;;;;;;;;21.51;38.61;102122.38;5044383;28;19923;-89
2022/03/16 09:04:52;;;;;;;;;;;;;;;21.52;38.42;102118.50;5031408;28;20415;-89
2022/03/16 09:07:26;;;;;;;;;;;;;;;21.52;38.63;102124.00;5030221;28;20386;-89
2022/03/16 09:15:51;;;;;;;;;;;;;;;;;;;;;
2022/03/16 09:18:50;;;;;;;;;;;;;;;;;;;;;
2022/03/16 09:21:39;;;;;;;;;;;;;;;;;;;;;
2022/03/16 09:26:59;;;;;;;;;;;;;;;21.54;38.48;102117.13;5022779;28;19958;-87
2022/03/16 09:29:43;;;;;;;;;;;;;;;;;;;;;
2022/03/16 09:32:28;;;;;;;;;;;;;;;;;;;;;
2022/03/16 09:34:59;;;;;;;;;;;;;;;21.55;38.60;102101.47;5038311;28;19957;-89
2022/03/16 09:37:34;;;;;;;;;;;;;;;;;;;;;
2022/03/16 09:40:07;;;;;;;;;;;;;;;21.56;38.60;102097.59;5048542;28;20292;-86
2022/03/16 09:42:53;;;;;;;;;;;;;;;21.56;38.77;102097.59;5028435;28;19925;-88
2022/03/16 09:45:30;;;;;;;;;;;;;;;21.57;38.84;102091.81;5028920;28;19921;-88
2022/03/16 09:48:08;;;;;;;;;;;;;;;;;;;;;
2022/03/16 09:50:37;;;;;;;;;;;;;;;21.58;38.66;102089.91;5029908;28;19928;-87
2022/03/16 09:53:15;;;;;;;;;;;;;;;21.58;38.53;102090.72;5048577;28;19937;-90
2022/03/16 09:55:56;;;;;;;;;;;;;;;;;;;;;
2022/03/16 09:58:22;;;;;;;;;;;;;;;21.59;38.61;102083.28;5032598;28;19925;-89
2022/03/16 10:00:57;;;;;;;;;;;;;;;21.60;38.62;102076.69;5031424;28;19924;-89
2022/03/16 10:03:53;;;;;;;;;;;;;;;;;;;;;
2022/03/16 10:18:05;;;;;;;;;;;;;;;21.61;38.56;102070.88;5036907;28;19935;-90
2022/03/16 10:20:52;;;;;;;;;;;;;;;21.63;38.65;102075.31;5063232;28;19929;-91
2022/03/16 10:23:37;;;;;;;;;;;;;;;;;;;;;
2022/03/16 10:26:03;;;;;;;;;;;;;;;21.63;38.63;102081.63;5043512;28;19924;-89
2022/03/16 10:28:42;;;;;;;;;;;;;;;21.65;38.80;102075.84;5028718;28;19943;-90
2022/03/16 10:31:12;;;;;;;;;;;;;;;21.64;38.65;102071.44;5034006;28;19954;-87
2022/03/16 10:33:48;;;;;;;;;;;;;;;21.65;38.67;102064.84;5031536;28;19925;-91
2022/03/16 10:36:33;;;;;;;;;;;;;;;21.65;38.54;102057.41;5048513;28;20310;-91
2022/03/16 10:39:13;;;;;;;;;;;;;;;21.65;38.81;102049.16;5010034;28;20483;-92
2022/03/16 10:47:28;;;;;;;;;;;;;;;;;;;;;
2022/03/16 10:50:12;;;;;;;;;;;;;;;21.67;38.63;102060.69;5047391;28;19931;-94
2022/03/16 10:52:47;;;;;;;;;;;;;;;21.68;38.69;102056.00;5030949;28;19916;-93
2022/03/16 10:55:40;;;;;;;;;;;;;;;21.68;38.68;102054.06;5016455;28;19967;-93
2022/03/16 10:58:28;;;;;;;;;;;;;;;21.69;38.71;102054.91;5047157;28;20460;-93
2022/03/16 11:01:05;;;;;;;;;;;;;;;21.69;38.81;102052.16;4992410;28;20384;-91
2022/03/16 11:03:36;;;;;;;;;;;;;;;21.70;38.69;102053.81;5041440;28;19935;-92
2022/03/16 11:06:13;;;;;;;;;;;;;;;;;;;;;
2022/03/16 11:08:59;;;;;;;;;;;;;;;;;;;;;
2022/03/16 11:14:17;;;;;;;;;;;;;;;21.72;38.64;102065.31;5034640;28;19958;-84
2022/03/16 11:19:48;;;;;;;;;;;;;;;21.72;38.57;102068.06;5034075;28;20014;-91
2022/03/16 11:25:21;;;;;;;;;;;;;;;;;;;;;
2022/03/16 11:27:52;;;;;;;;;;;;;;;21.75;38.52;102070.28;5045328;28;19913;-93
2022/03/16 11:30:45;;;;;;;;;;;;;;;21.73;38.64;102070.53;5032027;28;19924;-91
2022/03/16 11:33:15;;;;;;;;;;;;;;;21.75;38.56;102064.78;5030576;28;20249;-92
2022/03/16 11:35:59;;;;;;;;;;;;;;;21.75;38.90;102067.53;5031557;28;19957;-94
2022/03/16 11:38:28;;;;;;;;;;;;;;;21.76;38.70;102066.41;5059779;28;20410;-87
2022/03/16 11:41:18;;;;;;;;;;;;;;;21.76;38.76;102071.91;5024430;28;19916;-90
2022/03/16 11:43:43;;;;;;;;;;;;;;;21.76;38.61;102069.16;5048919;28;19920;-91
2022/03/16 11:49:25;;;;;;;;;;;;;;;;;;;;;
2022/03/16 11:52:29;;;;;;;;;;;;;;;;;;;;;
2022/03/16 11:55:08;;;;;;;;;;;;;;;21.77;38.69;102066.13;5046640;28;19946;-91
2022/03/16 11:57:54;;;;;;;;;;;;;;;21.77;38.61;102062.53;5047551;28;20014;-91
2022/03/16 12:00:24;;;;;;;;;;;;;;;21.78;38.87;102050.44;5059143;28;19921;-92
2022/03/16 12:02:58;;;;;;;;;;;;;;;21.78;38.67;102061.44;5015360;28;19921;-91
2022/03/16 12:05:37;;;;;;;;;;;;;;;;;;;;;
2022/03/16 12:08:27;;;;;;;;;;;;;;;;;;;;;
2022/03/16 12:13:54;;;;;;;;;;;;;;;21.80;38.88;102059.22;5055495;28;19928;-91
2022/03/16 12:16:23;;;;;;;;;;;;;;;21.79;38.58;102047.38;5039387;28;19931;-93
2022/03/16 12:18:53;;;;;;;;;;;;;;;21.80;38.61;102054.53;5039170;28;20016;-92
2022/03/16 12:21:25;;;;;;;;;;;;;;;21.79;38.81;102047.38;5048384;28;19958;-93
2022/03/16 12:23:58;;;;;;;;;;;;;;;21.80;38.83;102049.03;5061523;28;19945;-92
2022/03/16 12:26:27;;;;;;;;;;;;;;;21.80;38.83;102035.28;5040608;28;19973;-92
2022/03/16 12:29:07;;;;;;;;;;;;;;;21.80;38.67;102042.72;5033276;28;19947;-91
2022/03/16 12:31:47;;;;;;;;;;;;;;;21.80;38.91;102038.03;5052053;28;19979;-92
2022/03/16 12:34:21;;;;;;;;;;;;;;;21.81;38.91;102039.66;5031370;28;19921;-92
2022/03/16 12:36:49;;;;;;;;;;;;;;;21.80;38.78;102032.53;5034250;28;19947;-94
2022/03/16 12:39:14;;;;;;;;;;;;;;;21.81;38.81;102038.84;5030056;28;20059;-87
2022/03/16 12:44:42;;;;;;;;;;;;;;;21.82;38.86;102019.31;5038500;28;19958;-94
2022/03/16 12:47:11;;;;;;;;;;;;;;;21.81;38.93;102023.16;5020500;28;20027;-94
2022/03/16 12:49:43;;;;;;;;;;;;;;;21.82;38.69;102016.56;5035178;28;19931;-93
2022/03/16 12:52:14;;;;;;;;;;;;;;;21.83;38.90;102018.22;5030156;28;20515;-95
2022/03/16 12:54:47;;;;;;;;;;;;;;;21.83;38.91;102022.88;5031570;28;20449;-93
2022/03/16 12:57:46;;;;;;;;;;;;;;;;;;;;;
2022/03/16 13:00:49;;;;;;;;;;;;;;;21.82;38.87;102013.81;5033854;28;19939;-92
2022/03/16 13:03:17;;;;;;;;;;;;;;;21.83;38.84;102009.13;5046898;28;20020;-93
2022/03/16 13:05:52;;;;;;;;;;;;;;;21.83;38.74;102004.44;5033450;28;19928;-92
2022/03/16 13:08:55;;;;;;;;;;;;;;;21.83;38.86;102003.63;5028436;28;19921;-94
2022/03/16 13:11:24;;;;;;;;;;;;;;;21.85;38.94;101995.06;5032565;28;19963;-89
2022/03/16 13:17:15;;;;;;;;;;;;;;;21.85;38.71;101984.91;5039904;28;19917;-95
2022/03/16 13:19:48;;;;;;;;;;;;;;;21.85;38.91;101982.16;5022916;28;19950;-93
2022/03/16 13:22:44;;;;;;;;;;;;;;;21.85;38.94;101979.41;5047912;28;19954;-94
2022/03/16 13:25:14;;;;;;;;;;;;;;;21.86;38.74;101963.72;5047654;28;19946;-93
2022/03/16 13:27:40;;;;;;;;;;;;;;;21.86;38.73;101960.97;5036741;28;19974;-88
2022/03/16 13:30:24;;;;;;;;;;;;;;;21.86;38.69;101950.78;5051468;28;19928;-94
2022/03/16 13:33:00;;;;;;;;;;;;;;;21.86;38.73;101949.97;5050302;28;20045;-90
2022/03/16 13:35:32;;;;;;;;;;;;;;;21.86;38.74;101938.97;5048649;28;20033;-90
2022/03/16 13:38:03;;;;;;;;;;;;;;;21.86;38.64;101938.97;5049937;28;19927;-92
2022/03/16 13:40:37;;;;;;;;;;;;;;;21.86;38.82;101939.78;5062327;28;20329;-91
2022/03/16 13:43:36;;;;;;;;;;;;;;;21.87;38.60;101930.41;5066512;28;19937;-93
2022/03/16 13:46:10;;;;;;;;;;;;;;;21.87;38.79;101922.16;5051711;28;19925;-93
2022/03/16 13:48:47;;;;;;;;;;;;;;;;;;;;;
2022/03/16 13:51:20;;;;;;;;;;;;;;;21.88;38.83;101923.81;5067446;28;20018;-90
2022/03/16 13:53:50;;;;;;;;;;;;;;;21.88;38.58;101921.06;5065861;28;20465;-92
2022/03/16 13:56:38;;;;;;;;;;;;;;;21.88;38.76;101915.56;5051504;28;19973;-93
2022/03/16 13:59:12;;;;;;;;;;;;;;;21.88;38.71;101912.81;5069098;28;19917;-93
2022/03/16 14:01:40;;;;;;;;;;;;;;;21.89;38.77;101903.44;5051957;28;19925;-95
2022/03/16 14:04:16;;;;;;;;;;;;;;;21.89;38.62;101900.69;5070517;28;19947;-94
2022/03/16 14:06:54;;;;;;;;;;;;;;;;;;;;;
2022/03/16 14:09:29;;;;;;;;;;;;;;;21.89;38.65;101884.19;5067840;28;20429;-93
2022/03/16 14:12:00;;;;;;;;;;;;;;;21.89;38.92;101878.69;5050479;28;19927;-88
2022/03/16 14:14:31;;;;;;;;;;;;;;;21.89;38.81;101864.94;5062955;28;19968;-90
2022/03/16 14:17:06;;;;;;;;;;;;;;;;;;;;;
2022/03/16 14:19:38;;;;;;;;;;;;;;;21.90;38.78;101854.75;5069233;28;19961;-94